createdAt,value
2023-04-02T00:00:20.739Z,4.67
2023-04-02T00:03:00.002Z,5.05
2023-04-02T00:05:55.201Z,4.87
2023-04-02T00:08:41.284Z,5.01
2023-04-02T00:11:12.175Z,4.97
2023-04-02T00:13:46.878Z,4.76
2023-04-02T00:16:23.610Z,5.03
2023-04-02T00:18:59.132Z,4.92
2023-04-02T00:21:31.653Z,4.98
2023-04-02T00:24:04.180Z,4.82
2023-04-02T00:26:37.811Z,4.88
2023-04-02T00:29:11.351Z,4.82
2023-04-02T00:31:44.351Z,4.73
2023-04-02T00:34:22.861Z,4.92
2023-04-02T00:36:53.571Z,4.88
2023-04-02T00:39:27.221Z,4.86
2023-04-02T00:42:05.127Z,4.73
2023-04-02T00:44:43.254Z,4.70
2023-04-02T00:47:21.526Z,4.84
2023-04-02T00:49:58.023Z,4.47
2023-04-02T00:52:31.781Z,4.91
2023-04-02T00:55:07.874Z,4.83
2023-04-02T00:57:37.269Z,4.72
2023-04-02T01:00:25.522Z,4.90
2023-04-02T01:03:34.610Z,4.75
2023-04-02T01:06:11.277Z,4.66
2023-04-02T01:09:03.766Z,4.59
2023-04-02T01:12:01.090Z,4.52
2023-04-02T01:14:49.030Z,4.40
2023-04-02T01:17:36.191Z,4.34
2023-04-02T01:20:51.287Z,4.44
2023-04-02T01:23:27.881Z,4.34
2023-04-02T01:26:10.661Z,4.31
2023-04-02T01:29:01.944Z,4.03
2023-04-02T01:31:33.372Z,4.28
2023-04-02T01:34:04.623Z,4.02
2023-04-02T01:36:44.877Z,4.24
2023-04-02T01:39:33.352Z,3.94
2023-04-02T01:42:14.329Z,4.17
2023-04-02T01:44:50.001Z,4.25
2023-04-02T01:47:23.154Z,4.24
2023-04-02T01:49:59.174Z,4.24
2023-04-02T01:52:40.733Z,4.18
2023-04-02T01:55:13.142Z,4.22
2023-04-02T01:57:45.844Z,4.20
2023-04-02T02:00:19.121Z,4.14
2023-04-02T02:02:53.262Z,3.77
2023-04-02T02:05:24.754Z,3.91
2023-04-02T02:07:58.096Z,4.10
2023-04-02T02:10:34.327Z,4.15
2023-04-02T02:13:03.363Z,4.12
2023-04-02T02:15:37.341Z,4.02
2023-04-02T02:18:11.751Z,3.96
2023-04-02T02:20:41.244Z,3.94
2023-04-02T02:23:13.756Z,3.84
2023-04-02T02:25:43.125Z,3.81
2023-04-02T02:28:19.869Z,3.00
2023-04-02T02:30:54.146Z,3.85
2023-04-02T02:33:28.294Z,3.78
2023-04-02T02:36:06.763Z,3.51
2023-04-02T02:38:56.288Z,3.71
2023-04-02T02:41:41.412Z,3.67
2023-04-02T02:44:19.837Z,3.45
2023-04-02T02:46:56.051Z,3.60
2023-04-02T02:49:31.513Z,3.59
2023-04-02T02:52:14.014Z,3.57
2023-04-02T02:55:02.279Z,2.85
2023-04-02T02:57:49.477Z,3.42
2023-04-02T03:00:21.037Z,3.05
2023-04-02T03:02:54.337Z,3.54
2023-04-02T03:05:28.031Z,3.52
2023-04-02T03:08:03.329Z,3.51
2023-04-02T03:10:44.539Z,3.38
2023-04-02T03:13:24.727Z,3.53
2023-04-02T03:16:05.157Z,3.53
2023-04-02T03:18:46.815Z,3.33
2023-04-02T03:21:29.769Z,3.25
2023-04-02T03:24:04.687Z,3.55
2023-04-02T03:26:41.854Z,3.28
2023-04-02T03:29:18.732Z,3.46
2023-04-02T03:31:55.180Z,3.47
2023-04-02T03:34:33.982Z,3.46
2023-04-02T03:37:14.204Z,3.46
2023-04-02T03:39:47.930Z,3.48
2023-04-02T03:42:25.153Z,3.50
2023-04-02T03:45:04.116Z,3.48
2023-04-02T03:47:41.089Z,3.52
2023-04-02T03:50:20.036Z,3.19
2023-04-02T03:52:50.093Z,3.40
2023-04-02T03:55:25.217Z,3.46
2023-04-02T03:58:06.304Z,3.39
2023-04-02T04:00:42.228Z,3.44
2023-04-02T04:03:17.230Z,3.42
2023-04-02T04:05:54.972Z,3.29
2023-04-02T04:08:33.882Z,3.41
2023-04-02T04:11:11.122Z,3.23
2023-04-02T04:13:51.475Z,3.42
2023-04-02T04:16:27.756Z,3.41
2023-04-02T04:19:05.121Z,3.42
2023-04-02T04:21:38.359Z,3.42
2023-04-02T04:24:21.893Z,3.44
2023-04-02T04:27:04.052Z,3.44
2023-04-02T04:29:46.556Z,3.45
2023-04-02T04:32:32.113Z,2.86
2023-04-02T04:35:17.779Z,3.38
2023-04-02T04:37:58.739Z,3.40
2023-04-02T04:40:34.247Z,3.00
2023-04-02T04:43:09.116Z,3.43
2023-04-02T04:45:46.038Z,3.40
2023-04-02T04:48:27.509Z,3.32
2023-04-02T04:51:03.747Z,3.24
2023-04-02T04:53:34.459Z,3.40
2023-04-02T04:56:18.825Z,3.42
2023-04-02T04:59:00.179Z,3.14
2023-04-02T05:01:38.753Z,3.47
2023-04-02T05:04:18.840Z,3.32
2023-04-02T05:06:56.433Z,3.46
2023-04-02T05:09:35.133Z,3.47
2023-04-02T05:12:18.629Z,3.49
2023-04-02T05:14:55.400Z,3.32
2023-04-02T05:17:33.820Z,2.40
2023-04-02T05:20:09.782Z,3.49
2023-04-02T05:22:48.233Z,3.51
2023-04-02T05:25:27.104Z,3.55
2023-04-02T05:28:06.352Z,3.61
2023-04-02T05:30:49.445Z,3.67
2023-04-02T05:33:28.230Z,3.59
2023-04-02T05:36:03.012Z,3.59
2023-04-02T05:38:38.865Z,3.58
2023-04-02T05:41:23.475Z,3.69
2023-04-02T05:44:06.640Z,3.61
2023-04-02T05:46:46.723Z,3.58
2023-04-02T05:49:26.125Z,3.56
2023-04-02T05:52:00.854Z,3.62
2023-04-02T05:54:38.698Z,3.78
2023-04-02T05:57:16.579Z,3.76
2023-04-02T05:59:50.769Z,3.86
2023-04-02T06:02:26.787Z,3.82
2023-04-02T06:05:03.093Z,3.76
2023-04-02T06:07:42.960Z,3.74
2023-04-02T06:10:20.604Z,3.66
2023-04-02T06:12:58.156Z,3.74
2023-04-02T06:15:27.973Z,3.61
2023-04-02T06:18:16.221Z,3.49
2023-04-02T06:20:45.716Z,3.49
2023-04-02T06:23:21.904Z,3.48
2023-04-02T06:26:01.582Z,3.47
2023-04-02T06:28:42.440Z,3.48
2023-04-02T06:31:27.008Z,3.28
2023-04-02T06:33:57.470Z,3.33
2023-04-02T06:36:29.455Z,3.58
2023-04-02T06:39:10.023Z,3.59
2023-04-02T06:41:39.469Z,3.59
2023-04-02T06:44:33.432Z,3.47
2023-04-02T06:47:31.748Z,3.52
2023-04-02T06:50:09.377Z,3.13
2023-04-02T06:52:45.670Z,3.44
2023-04-02T06:55:45.994Z,3.67
2023-04-02T06:58:17.344Z,3.72
2023-04-02T07:00:49.521Z,3.74
2023-04-02T07:03:29.002Z,3.78
2023-04-02T07:06:04.017Z,3.85
2023-04-02T07:08:34.665Z,3.78
2023-04-02T07:11:03.186Z,3.83
2023-04-02T07:13:31.804Z,3.66
2023-04-02T07:16:01.956Z,3.84
2023-04-02T07:18:33.856Z,3.80
2023-04-02T07:21:06.544Z,3.86
2023-04-02T07:23:35.355Z,3.77
2023-04-02T07:26:03.938Z,3.82
2023-04-02T07:28:32.459Z,3.89
2023-04-02T07:31:02.342Z,3.95
2023-04-02T07:33:32.368Z,3.87
2023-04-02T07:36:00.847Z,4.08
2023-04-02T07:38:29.304Z,4.31
2023-04-02T07:40:57.791Z,3.58
2023-04-02T07:43:26.376Z,4.20
2023-04-02T07:45:54.842Z,3.85
2023-04-02T07:48:24.676Z,4.35
2023-04-02T07:50:53.167Z,4.48
2023-04-02T07:53:30.810Z,4.66
2023-04-02T07:56:01.163Z,4.58
2023-04-02T07:58:30.877Z,4.50
2023-04-02T08:00:59.922Z,4.45
2023-04-02T08:03:30.161Z,4.50
2023-04-02T08:06:00.325Z,4.56
2023-04-02T08:08:28.875Z,4.44
2023-04-02T08:10:57.333Z,4.11
2023-04-02T08:13:25.925Z,4.40
2023-04-02T08:15:54.396Z,4.59
2023-04-02T08:18:24.597Z,4.60
2023-04-02T08:20:54.609Z,4.85
2023-04-02T08:23:23.859Z,5.06
2023-04-02T08:25:53.658Z,5.18
2023-04-02T08:28:22.970Z,5.10
2023-04-02T08:30:52.640Z,5.26
2023-04-02T08:33:21.255Z,5.25
2023-04-02T08:35:51.898Z,5.10
2023-04-02T08:38:23.708Z,4.75
2023-04-02T08:40:55.617Z,4.78
2023-04-02T08:44:09.604Z,5.04
2023-04-02T08:46:49.247Z,4.97
2023-04-02T08:49:27.025Z,4.88
2023-04-02T08:51:55.643Z,4.85
2023-04-02T08:54:30.530Z,5.00
2023-04-02T08:57:05.665Z,4.92
2023-04-02T08:59:37.856Z,5.16
2023-04-02T09:02:30.829Z,5.24
2023-04-02T09:05:06.030Z,5.05
2023-04-02T09:07:35.281Z,5.63
2023-04-02T09:10:07.318Z,5.53
2023-04-02T09:12:37.113Z,5.67
2023-04-02T09:15:24.755Z,5.44
2023-04-02T09:18:05.261Z,5.56
2023-04-02T09:20:33.813Z,6.23
2023-04-02T09:23:02.265Z,5.78
2023-04-02T09:25:33.535Z,5.42
2023-04-02T09:28:06.472Z,5.83
2023-04-02T09:30:57.142Z,6.60
2023-04-02T09:33:45.678Z,6.51
2023-04-02T09:36:37.403Z,5.81
2023-04-02T09:39:18.032Z,6.12
2023-04-02T09:41:59.037Z,5.97
2023-04-02T09:44:33.688Z,6.39
2023-04-02T09:47:05.276Z,6.02
2023-04-02T09:49:37.255Z,5.44
2023-04-02T09:52:29.328Z,5.46
2023-04-02T09:55:22.986Z,5.58
2023-04-02T09:58:08.891Z,5.88
2023-04-02T10:00:38.201Z,6.21
2023-04-02T10:03:19.184Z,5.97
2023-04-02T10:05:48.892Z,5.80
2023-04-02T10:08:28.151Z,5.69
2023-04-02T10:11:01.989Z,5.49
2023-04-02T10:13:41.951Z,5.84
2023-04-02T10:16:18.825Z,5.68
2023-04-02T10:18:51.905Z,6.12
2023-04-02T10:21:27.113Z,5.86
2023-04-02T10:23:58.290Z,5.38
2023-04-02T10:26:54.218Z,5.39
2023-04-02T10:30:04.031Z,5.53
2023-04-02T10:32:42.566Z,5.69
2023-04-02T10:35:25.702Z,5.31
2023-04-02T10:38:27.444Z,5.44
2023-04-02T10:41:02.108Z,5.21
2023-04-02T10:44:06.187Z,5.23
2023-04-02T10:47:00.840Z,5.48
2023-04-02T10:49:42.019Z,5.14
2023-04-02T10:52:19.558Z,5.71
2023-04-02T10:54:52.589Z,5.96
2023-04-02T10:57:38.058Z,6.00
2023-04-02T11:00:23.630Z,6.03
2023-04-02T11:03:01.146Z,6.56
2023-04-02T11:05:40.281Z,6.79
2023-04-02T11:08:20.728Z,7.35
2023-04-02T11:10:55.985Z,7.10
2023-04-02T11:13:32.389Z,7.12
2023-04-02T11:16:01.211Z,7.64
2023-04-02T11:18:36.057Z,7.45
2023-04-02T11:21:08.057Z,7.42
2023-04-02T11:23:54.868Z,7.20
2023-04-02T11:26:46.289Z,6.35
2023-04-02T11:29:23.820Z,6.88
2023-04-02T11:32:15.708Z,6.79
2023-04-02T11:35:07.520Z,6.67
2023-04-02T11:37:41.122Z,6.93
2023-04-02T11:40:46.674Z,6.68
2023-04-02T11:44:00.789Z,7.24
2023-04-02T11:46:47.918Z,7.14
2023-04-02T11:50:02.492Z,6.96
2023-04-02T11:52:37.926Z,6.24
2023-04-02T11:55:27.449Z,5.99
2023-04-02T11:58:38.083Z,6.73
2023-04-02T12:01:54.610Z,6.39
2023-04-02T12:04:59.373Z,6.34
2023-04-02T12:08:05.962Z,6.75
2023-04-02T12:10:53.606Z,6.37
2023-04-02T12:13:52.594Z,6.70
2023-04-02T12:16:25.480Z,6.22
2023-04-02T12:18:55.560Z,6.18
2023-04-02T12:21:28.262Z,5.60
2023-04-02T12:24:00.851Z,6.06
2023-04-02T12:26:38.998Z,5.95
2023-04-02T12:29:24.297Z,6.11
2023-04-02T12:31:54.695Z,6.20
2023-04-02T12:34:26.794Z,6.19
2023-04-02T12:37:02.651Z,6.09
2023-04-02T12:39:35.805Z,6.20
2023-04-02T12:42:04.353Z,6.36
2023-04-02T12:44:33.487Z,7.11
2023-04-02T12:47:02.309Z,7.45
2023-04-02T12:49:40.037Z,7.16
2023-04-02T12:52:11.827Z,7.72
2023-04-02T12:54:48.729Z,7.94
2023-04-02T12:57:40.260Z,7.76
2023-04-02T13:00:37.260Z,7.62
2023-04-02T13:03:29.133Z,6.75
2023-04-02T13:05:58.716Z,6.90
2023-04-02T13:08:33.324Z,7.50
2023-04-02T13:11:06.711Z,7.77
2023-04-02T13:13:39.233Z,7.68
2023-04-02T13:16:27.663Z,6.96
2023-04-02T13:19:23.435Z,6.96
2023-04-02T13:21:52.797Z,7.66
2023-04-02T13:24:23.748Z,7.74
2023-04-02T13:26:58.609Z,7.80
2023-04-02T13:29:41.950Z,8.00
2023-04-02T13:32:14.243Z,8.09
2023-04-02T13:34:42.861Z,8.16
2023-04-02T13:37:13.879Z,8.01
2023-04-02T13:39:42.772Z,7.91
2023-04-02T13:42:14.296Z,7.82
2023-04-02T13:44:43.717Z,7.43
2023-04-02T13:47:16.482Z,7.70
2023-04-02T13:49:44.942Z,7.68
2023-04-02T13:52:17.029Z,7.72
2023-04-02T13:54:50.829Z,7.78
2023-04-02T13:57:21.407Z,7.94
2023-04-02T13:59:49.867Z,8.36
2023-04-02T14:02:25.553Z,8.33
2023-04-02T14:05:04.936Z,8.95
2023-04-02T14:07:55.848Z,9.27
2023-04-02T14:10:39.685Z,9.20
2023-04-02T14:13:37.928Z,8.55
2023-04-02T14:16:28.001Z,8.26
2023-04-02T14:19:17.648Z,7.45
2023-04-02T14:22:02.602Z,8.26
2023-04-02T14:24:46.275Z,8.18
2023-04-02T14:27:32.838Z,7.82
2023-04-02T14:30:16.618Z,8.23
2023-04-02T14:32:58.381Z,8.42
2023-04-02T14:35:36.514Z,8.31
2023-04-02T14:38:17.876Z,8.72
2023-04-02T14:40:51.614Z,7.52
2023-04-02T14:43:32.644Z,8.11
2023-04-02T14:46:05.039Z,8.12
2023-04-02T14:48:47.870Z,8.40
2023-04-02T14:51:26.424Z,7.43
2023-04-02T14:54:05.687Z,8.10
2023-04-02T14:56:43.139Z,7.84
2023-04-02T14:59:29.878Z,7.96
2023-04-02T15:02:08.649Z,7.73
2023-04-02T15:04:43.107Z,8.10
2023-04-02T15:07:20.609Z,8.07
2023-04-02T15:10:00.333Z,7.79
2023-04-02T15:12:34.591Z,7.74
2023-04-02T15:15:24.322Z,7.83
2023-04-02T15:18:03.024Z,7.82
2023-04-02T15:20:41.283Z,7.35
2023-04-02T15:23:20.420Z,7.51
2023-04-02T15:25:56.541Z,7.44
2023-04-02T15:28:33.416Z,7.58
2023-04-02T15:31:12.944Z,7.79
2023-04-02T15:33:52.852Z,7.80
2023-04-02T15:36:54.908Z,8.32
2023-04-02T15:39:40.214Z,8.20
2023-04-02T15:42:32.209Z,8.14
2023-04-02T15:45:34.823Z,8.50
2023-04-02T15:48:31.562Z,7.99
2023-04-02T15:51:21.079Z,8.29
2023-04-02T15:54:05.898Z,8.18
2023-04-02T15:56:50.577Z,7.78
2023-04-02T16:00:05.211Z,7.91
2023-04-02T16:03:54.768Z,7.89
2023-04-02T16:06:32.524Z,7.84
2023-04-02T16:09:23.935Z,7.59
2023-04-02T16:12:01.000Z,7.54
2023-04-02T16:14:32.534Z,7.44
2023-04-02T16:17:17.562Z,7.46
2023-04-02T16:19:58.040Z,7.57
2023-04-02T16:22:33.242Z,7.64
2023-04-02T16:25:08.284Z,7.66
2023-04-02T16:27:45.271Z,7.86
2023-04-02T16:30:47.053Z,7.50
2023-04-02T16:33:51.997Z,7.44
2023-04-02T16:36:36.581Z,7.42
2023-04-02T16:39:29.125Z,7.45
2023-04-02T16:42:14.171Z,7.33
2023-04-02T16:45:00.599Z,7.57
2023-04-02T16:47:55.390Z,7.56
2023-04-02T16:50:40.276Z,7.17
2023-04-02T16:53:29.913Z,7.28
2023-04-02T16:56:29.008Z,7.07
2023-04-02T16:59:15.985Z,6.78
2023-04-02T17:01:59.257Z,6.83
2023-04-02T17:04:54.642Z,7.10
2023-04-02T17:07:41.693Z,6.94
2023-04-02T17:10:30.132Z,6.83
2023-04-02T17:13:14.099Z,6.98
2023-04-02T17:15:48.286Z,6.64
2023-04-02T17:18:20.486Z,6.96
2023-04-02T17:20:49.625Z,6.90
2023-04-02T17:23:20.705Z,6.85
2023-04-02T17:25:57.073Z,6.74
2023-04-02T17:28:37.033Z,6.58
2023-04-02T17:31:14.783Z,6.75
2023-04-02T17:33:43.292Z,6.55
2023-04-02T17:36:41.239Z,6.58
2023-04-02T17:39:21.907Z,6.59
2023-04-02T17:42:00.022Z,6.62
2023-04-02T17:45:02.272Z,6.49
2023-04-02T17:47:47.597Z,6.53
2023-04-02T17:50:46.197Z,6.44
2023-04-02T17:53:39.078Z,6.43
2023-04-02T17:56:26.710Z,6.26
2023-04-02T17:59:30.365Z,6.66
2023-04-02T18:02:20.611Z,6.58
2023-04-02T18:05:04.616Z,6.55
2023-04-02T18:07:47.040Z,6.13
2023-04-02T18:10:24.510Z,6.43
2023-04-02T18:12:59.147Z,6.21
2023-04-02T18:15:48.619Z,6.30
2023-04-02T18:18:39.420Z,6.43
2023-04-02T18:21:24.091Z,6.46
2023-04-02T18:24:13.764Z,6.37
2023-04-02T18:26:59.474Z,6.37
2023-04-02T18:29:42.801Z,6.09
2023-04-02T18:32:39.462Z,6.23
2023-04-02T18:35:23.345Z,6.20
2023-04-02T18:38:16.664Z,6.24
2023-04-02T18:41:03.779Z,6.22
2023-04-02T18:43:52.440Z,6.27
2023-04-02T18:46:37.179Z,6.23
2023-04-02T18:49:24.787Z,5.59
2023-04-02T18:52:01.391Z,6.16
2023-04-02T18:54:36.851Z,6.21
2023-04-02T18:57:14.532Z,6.10
2023-04-02T18:59:50.444Z,6.06
2023-04-02T19:02:40.217Z,5.75
2023-04-02T19:05:23.850Z,5.87
2023-04-02T19:08:03.595Z,5.83
2023-04-02T19:10:36.296Z,5.20
2023-04-02T19:13:15.483Z,5.98
2023-04-02T19:16:20.254Z,5.82
2023-04-02T19:19:02.920Z,5.36
2023-04-02T19:21:47.749Z,5.84
2023-04-02T19:24:42.613Z,5.53
2023-04-02T19:27:21.610Z,5.90
2023-04-02T19:30:08.178Z,5.93
2023-04-02T19:32:50.686Z,5.68
2023-04-02T19:35:28.110Z,5.08
2023-04-02T19:38:20.405Z,5.42
2023-04-02T19:41:00.897Z,5.02
2023-04-02T19:43:30.319Z,5.58
2023-04-02T19:45:59.202Z,5.30
2023-04-02T19:48:35.540Z,5.38
2023-04-02T19:51:04.270Z,5.52
2023-04-02T19:53:33.283Z,5.34
2023-04-02T19:56:03.458Z,5.45
2023-04-02T19:58:35.743Z,5.55
2023-04-02T20:01:05.058Z,5.37
2023-04-02T20:03:33.705Z,5.18
2023-04-02T20:06:02.470Z,5.26
2023-04-02T20:08:31.559Z,5.24
2023-04-02T20:11:02.024Z,5.19
2023-04-02T20:13:30.900Z,5.11
2023-04-02T20:16:01.855Z,4.92
2023-04-02T20:18:31.420Z,4.96
2023-04-02T20:21:00.375Z,4.91
2023-04-02T20:23:28.880Z,4.68
2023-04-02T20:25:58.516Z,4.47
2023-04-02T20:28:29.368Z,4.82
2023-04-02T20:31:09.468Z,4.75
2023-04-02T20:33:39.179Z,4.46
2023-04-02T20:36:11.519Z,4.63
2023-04-02T20:38:40.397Z,4.29
2023-04-02T20:41:10.910Z,4.44
2023-04-02T20:43:42.716Z,4.37
2023-04-02T20:46:13.648Z,4.33
2023-04-02T20:48:42.440Z,4.07
2023-04-02T20:51:15.464Z,3.80
2023-04-02T20:53:44.354Z,3.94
2023-04-02T20:56:16.080Z,4.06
2023-04-02T20:58:46.296Z,3.98
2023-04-02T21:01:19.731Z,3.76
2023-04-02T21:03:48.584Z,3.92
2023-04-02T21:06:19.543Z,3.88
2023-04-02T21:08:49.080Z,3.87
2023-04-02T21:11:18.418Z,3.65
2023-04-02T21:13:48.313Z,3.50
2023-04-02T21:16:19.679Z,3.73
2023-04-02T21:18:50.546Z,3.33
2023-04-02T21:21:21.183Z,3.71
2023-04-02T21:23:55.345Z,3.64
2023-04-02T21:26:24.201Z,3.61
2023-04-02T21:28:54.998Z,3.60
2023-04-02T21:31:26.098Z,3.57
2023-04-02T21:33:57.377Z,3.52
2023-04-02T21:36:28.670Z,3.47
2023-04-02T21:39:00.429Z,3.18
2023-04-02T21:41:32.657Z,3.15
2023-04-02T21:44:05.923Z,3.11
2023-04-02T21:46:38.593Z,3.28
2023-04-02T21:49:08.953Z,3.18
2023-04-02T21:51:39.556Z,3.09
2023-04-02T21:54:08.433Z,3.11
2023-04-02T21:56:39.529Z,2.79
2023-04-02T21:59:12.573Z,2.97
2023-04-02T22:01:43.970Z,2.91
2023-04-02T22:04:18.862Z,2.84
2023-04-02T22:06:48.623Z,2.77
2023-04-02T22:09:20.324Z,2.78
2023-04-02T22:11:52.772Z,2.78
2023-04-02T22:14:23.184Z,2.52
2023-04-02T22:16:52.134Z,2.65
2023-04-02T22:19:21.575Z,2.63
2023-04-02T22:21:50.048Z,2.52
2023-04-02T22:24:22.090Z,2.59
2023-04-02T22:26:51.058Z,2.56
2023-04-02T22:29:19.614Z,2.55
2023-04-02T22:31:49.427Z,2.33
2023-04-02T22:34:17.944Z,2.47
2023-04-02T22:36:46.401Z,2.45
2023-04-02T22:39:15.063Z,2.35
2023-04-02T22:41:43.472Z,2.38
2023-04-02T22:44:16.414Z,2.33
2023-04-02T22:46:45.080Z,2.34
2023-04-02T22:49:19.337Z,2.27
2023-04-02T22:51:48.446Z,2.22
2023-04-02T22:54:17.133Z,2.21
2023-04-02T22:56:45.580Z,2.18
2023-04-02T22:59:14.213Z,2.13
2023-04-02T23:01:42.832Z,2.07
2023-04-02T23:04:11.261Z,2.02
2023-04-02T23:06:41.219Z,1.98
2023-04-02T23:09:11.117Z,1.79
2023-04-02T23:11:39.567Z,1.90
2023-04-02T23:14:08.034Z,1.78
2023-04-02T23:16:36.474Z,1.88
2023-04-02T23:19:05.078Z,1.88
2023-04-02T23:21:33.526Z,1.86
2023-04-02T23:24:03.633Z,1.88
2023-04-02T23:26:32.995Z,1.89
2023-04-02T23:29:02.411Z,1.88
2023-04-02T23:31:31.459Z,1.90
2023-04-02T23:34:00.153Z,1.88
2023-04-02T23:36:30.931Z,1.57
2023-04-02T23:39:04.114Z,1.78
2023-04-02T23:41:33.248Z,1.75
2023-04-02T23:44:01.727Z,1.71
2023-04-02T23:46:31.974Z,1.64
2023-04-02T23:49:01.899Z,1.64
2023-04-02T23:51:32.420Z,1.63
2023-04-02T23:54:02.251Z,1.58
2023-04-02T23:56:30.702Z,1.57
2023-04-02T23:58:59.082Z,1.55
